sensor_id;sensor_type;location;lat;lon;timestamp;pressure;altitude;pressure_sealevel;temperature;humidity
55424;BME280;41294;42.666;23.350;2023-04-19T00:00:18;94554.16;;;11.53;90.42
55424;BME280;41294;42.666;23.350;2023-04-19T00:02:45;94548.97;;;11.59;90.75
55424;BME280;41294;42.666;23.350;2023-04-19T00:05:13;94550.31;;;11.54;90.88
55424;BME280;41294;42.666;23.350;2023-04-19T00:07:39;94554.16;;;11.53;90.85
55424;BME280;41294;42.666;23.350;2023-04-19T00:10:05;94542.47;;;11.45;91.38
55424;BME280;41294;42.666;23.350;2023-04-19T00:12:31;94548.00;;;11.47;91.22
55424;BME280;41294;42.666;23.350;2023-04-19T00:14:56;94535.00;;;11.44;91.62
55424;BME280;41294;42.666;23.350;2023-04-19T00:17:22;94538.81;;;11.43;91.67
55424;BME280;41294;42.666;23.350;2023-04-19T00:19:47;94545.09;;;11.45;91.23
55424;BME280;41294;42.666;23.350;2023-04-19T00:22:12;94538.09;;;11.43;91.65
55424;BME280;41294;42.666;23.350;2023-04-19T00:24:38;94533.66;;;11.48;91.11
55424;BME280;41294;42.666;23.350;2023-04-19T00:27:03;94539.91;;;11.37;90.95
55424;BME280;41294;42.666;23.350;2023-04-19T00:29:29;94537.81;;;11.41;90.79
55424;BME280;41294;42.666;23.350;2023-04-19T00:31:54;94534.00;;;11.42;91.27
55424;BME280;41294;42.666;23.350;2023-04-19T00:34:20;94531.47;;;11.47;91.27
55424;BME280;41294;42.666;23.350;2023-04-19T00:36:46;94534.13;;;11.47;91.37
55424;BME280;41294;42.666;23.350;2023-04-19T00:39:11;94534.97;;;11.53;91.03
55424;BME280;41294;42.666;23.350;2023-04-19T00:41:37;94530.97;;;11.57;90.81
55424;BME280;41294;42.666;23.350;2023-04-19T00:44:02;94531.53;;;11.61;90.45
55424;BME280;41294;42.666;23.350;2023-04-19T00:46:27;94535.78;;;11.59;89.96
55424;BME280;41294;42.666;23.350;2023-04-19T00:48:53;94529.00;;;11.67;90.01
55424;BME280;41294;42.666;23.350;2023-04-19T00:51:19;94529.00;;;11.67;88.95
55424;BME280;41294;42.666;23.350;2023-04-19T00:53:44;94525.72;;;11.72;89.11
55424;BME280;41294;42.666;23.350;2023-04-19T00:56:12;94521.72;;;11.76;88.98
55424;BME280;41294;42.666;23.350;2023-04-19T00:58:38;94523.91;;;11.78;88.76
55424;BME280;41294;42.666;23.350;2023-04-19T01:01:03;94527.91;;;11.73;89.49
55424;BME280;41294;42.666;23.350;2023-04-19T01:03:30;94522.44;;;11.77;89.00
55424;BME280;41294;42.666;23.350;2023-04-19T01:05:56;94511.19;;;11.76;88.30
55424;BME280;41294;42.666;23.350;2023-04-19T01:08:22;94514.53;;;11.62;89.59
55424;BME280;41294;42.666;23.350;2023-04-19T01:10:48;94513.34;;;11.63;89.74
55424;BME280;41294;42.666;23.350;2023-04-19T01:13:13;94509.16;;;11.57;90.34
55424;BME280;41294;42.666;23.350;2023-04-19T01:15:38;94513.97;;;11.58;90.61
55424;BME280;41294;42.666;23.350;2023-04-19T01:18:04;94514.88;;;11.55;90.43
55424;BME280;41294;42.666;23.350;2023-04-19T01:20:29;94517.50;;;11.55;90.48
55424;BME280;41294;42.666;23.350;2023-04-19T01:22:54;94510.69;;;11.63;90.48
55424;BME280;41294;42.666;23.350;2023-04-19T01:25:20;94509.53;;;11.64;90.09
55424;BME280;41294;42.666;23.350;2023-04-19T01:27:45;94517.78;;;11.57;90.00
55424;BME280;41294;42.666;23.350;2023-04-19T01:30:11;94514.63;;;11.53;89.84
55424;BME280;41294;42.666;23.350;2023-04-19T01:32:37;94512.06;;;11.59;89.48
55424;BME280;41294;42.666;23.350;2023-04-19T01:35:02;94510.53;;;11.67;89.43
55424;BME280;41294;42.666;23.350;2023-04-19T01:37:28;94515.16;;;11.57;89.59
55424;BME280;41294;42.666;23.350;2023-04-19T01:39:54;94514.78;;;11.64;89.57
55424;BME280;41294;42.666;23.350;2023-04-19T01:42:20;94510.78;;;11.69;89.25
55424;BME280;41294;42.666;23.350;2023-04-19T01:44:46;94513.91;;;11.67;89.57
55424;BME280;41294;42.666;23.350;2023-04-19T01:47:12;94504.50;;;11.52;90.23
55424;BME280;41294;42.666;23.350;2023-04-19T01:49:37;94511.75;;;11.43;91.00
55424;BME280;41294;42.666;23.350;2023-04-19T01:52:03;94498.88;;;11.45;90.93
55424;BME280;41294;42.666;23.350;2023-04-19T01:54:28;94503.84;;;11.43;91.69
55424;BME280;41294;42.666;23.350;2023-04-19T01:56:53;94507.59;;;11.50;91.17
55424;BME280;41294;42.666;23.350;2023-04-19T01:59:19;94504.38;;;11.46;91.29
55424;BME280;41294;42.666;23.350;2023-04-19T02:01:44;94503.28;;;11.39;91.44
55424;BME280;41294;42.666;23.350;2023-04-19T02:04:09;94497.94;;;11.47;91.50
55424;BME280;41294;42.666;23.350;2023-04-19T02:06:38;94499.72;;;11.27;92.94
55424;BME280;41294;42.666;23.350;2023-04-19T02:09:03;94503.78;;;11.14;93.53
55424;BME280;41294;42.666;23.350;2023-04-19T02:11:29;94494.88;;;11.11;93.67
55424;BME280;41294;42.666;23.350;2023-04-19T02:13:54;94500.53;;;11.19;93.70
55424;BME280;41294;42.666;23.350;2023-04-19T02:16:20;94502.31;;;11.13;94.02
55424;BME280;41294;42.666;23.350;2023-04-19T02:18:45;94497.41;;;11.06;94.19
55424;BME280;41294;42.666;23.350;2023-04-19T02:21:12;94499.94;;;11.00;94.53
55424;BME280;41294;42.666;23.350;2023-04-19T02:23:37;94491.75;;;10.98;95.09
55424;BME280;41294;42.666;23.350;2023-04-19T02:26:03;94496.13;;;11.01;95.16
55424;BME280;41294;42.666;23.350;2023-04-19T02:28:29;94487.66;;;10.97;95.33
55424;BME280;41294;42.666;23.350;2023-04-19T02:30:55;94485.94;;;10.94;95.38
55424;BME280;41294;42.666;23.350;2023-04-19T02:33:20;94484.81;;;10.86;95.57
55424;BME280;41294;42.666;23.350;2023-04-19T02:35:46;94491.97;;;10.86;95.96
55424;BME280;41294;42.666;23.350;2023-04-19T02:38:11;94499.22;;;10.76;96.81
55424;BME280;41294;42.666;23.350;2023-04-19T02:40:37;94496.59;;;10.76;96.92
55424;BME280;41294;42.666;23.350;2023-04-19T02:43:02;94494.97;;;10.79;96.70
55424;BME280;41294;42.666;23.350;2023-04-19T02:45:28;94500.34;;;10.84;96.30
55424;BME280;41294;42.666;23.350;2023-04-19T02:47:54;94499.50;;;10.78;96.04
55424;BME280;41294;42.666;23.350;2023-04-19T02:50:19;94502.22;;;10.84;95.86
55424;BME280;41294;42.666;23.350;2023-04-19T02:52:45;94495.34;;;10.86;95.58
55424;BME280;41294;42.666;23.350;2023-04-19T02:55:10;94494.97;;;10.79;96.31
55424;BME280;41294;42.666;23.350;2023-04-19T02:57:35;94498.06;;;10.77;95.99
55424;BME280;41294;42.666;23.350;2023-04-19T03:00:01;94491.16;;;10.80;96.08
55424;BME280;41294;42.666;23.350;2023-04-19T03:02:26;94503.69;;;10.85;95.45
55424;BME280;41294;42.666;23.350;2023-04-19T03:04:51;94493.31;;;10.81;95.48
55424;BME280;41294;42.666;23.350;2023-04-19T03:07:18;94489.69;;;10.79;95.56
55424;BME280;41294;42.666;23.350;2023-04-19T03:09:43;94498.41;;;10.85;95.11
55424;BME280;41294;42.666;23.350;2023-04-19T03:12:08;94501.34;;;10.87;94.55
55424;BME280;41294;42.666;23.350;2023-04-19T03:14:34;94492.44;;;10.84;94.94
55424;BME280;41294;42.666;23.350;2023-04-19T03:17:00;94495.34;;;10.86;94.97
55424;BME280;41294;42.666;23.350;2023-04-19T03:19:25;94492.38;;;10.70;95.71
55424;BME280;41294;42.666;23.350;2023-04-19T03:21:50;94497.31;;;10.77;95.82
55424;BME280;41294;42.666;23.350;2023-04-19T03:24:17;94493.50;;;10.78;95.55
55424;BME280;41294;42.666;23.350;2023-04-19T03:26:43;94487.88;;;10.85;95.30
55424;BME280;41294;42.666;23.350;2023-04-19T03:29:09;94493.50;;;10.78;95.75
55424;BME280;41294;42.666;23.350;2023-04-19T03:31:34;94490.03;;;10.72;95.58
55424;BME280;41294;42.666;23.350;2023-04-19T03:33:59;94492.38;;;10.70;95.73
55424;BME280;41294;42.666;23.350;2023-04-19T03:36:25;94491.59;;;10.55;96.67
55424;BME280;41294;42.666;23.350;2023-04-19T03:38:51;94493.19;;;10.62;96.46
55424;BME280;41294;42.666;23.350;2023-04-19T03:41:21;94490.38;;;10.65;96.21
55424;BME280;41294;42.666;23.350;2023-04-19T03:43:46;94495.00;;;10.70;95.52
55424;BME280;41294;42.666;23.350;2023-04-19T03:46:12;94494.56;;;10.71;95.60
55424;BME280;41294;42.666;23.350;2023-04-19T03:48:37;94491.47;;;10.50;95.96
55424;BME280;41294;42.666;23.350;2023-04-19T03:51:02;94489.03;;;10.46;95.87
55424;BME280;41294;42.666;23.350;2023-04-19T03:53:28;94487.50;;;10.54;95.22
55424;BME280;41294;42.666;23.350;2023-04-19T03:55:53;94482.78;;;10.58;95.65
55424;BME280;41294;42.666;23.350;2023-04-19T03:58:19;94494.06;;;10.59;96.03
55424;BME280;41294;42.666;23.350;2023-04-19T04:00:44;94488.06;;;10.58;95.55
55424;BME280;41294;42.666;23.350;2023-04-19T04:03:10;94483.72;;;10.55;95.74
55424;BME280;41294;42.666;23.350;2023-04-19T04:05:35;94480.84;;;10.44;96.46
55424;BME280;41294;42.666;23.350;2023-04-19T04:08:00;94489.56;;;10.50;95.95
55424;BME280;41294;42.666;23.350;2023-04-19T04:10:26;94488.50;;;10.57;95.98
55424;BME280;41294;42.666;23.350;2023-04-19T04:12:51;94496.00;;;10.49;96.66
55424;BME280;41294;42.666;23.350;2023-04-19T04:15:17;94492.50;;;10.52;96.41
55424;BME280;41294;42.666;23.350;2023-04-19T04:17:42;94497.25;;;10.63;96.34
55424;BME280;41294;42.666;23.350;2023-04-19T04:20:08;94504.72;;;10.64;95.37
55424;BME280;41294;42.666;23.350;2023-04-19T04:22:34;94503.25;;;10.63;95.53
55424;BME280;41294;42.666;23.350;2023-04-19T04:24:59;94500.50;;;10.58;95.81
55424;BME280;41294;42.666;23.350;2023-04-19T04:27:26;94503.25;;;10.63;95.08
55424;BME280;41294;42.666;23.350;2023-04-19T04:29:51;94506.66;;;10.55;95.61
55424;BME280;41294;42.666;23.350;2023-04-19T04:32:17;94498.31;;;10.56;95.72
55424;BME280;41294;42.666;23.350;2023-04-19T04:34:47;94504.13;;;10.60;95.73
55424;BME280;41294;42.666;23.350;2023-04-19T04:37:12;94513.44;;;10.70;95.11
55424;BME280;41294;42.666;23.350;2023-04-19T04:39:38;94512.38;;;10.53;96.01
55424;BME280;41294;42.666;23.350;2023-04-19T04:42:05;94513.44;;;10.70;95.39
55424;BME280;41294;42.666;23.350;2023-04-19T04:44:33;94509.97;;;10.64;95.66
55424;BME280;41294;42.666;23.350;2023-04-19T04:46:59;94508.97;;;10.62;96.08
55424;BME280;41294;42.666;23.350;2023-04-19T04:49:25;94508.69;;;10.60;95.68
55424;BME280;41294;42.666;23.350;2023-04-19T04:51:50;94515.41;;;10.61;95.63
55424;BME280;41294;42.666;23.350;2023-04-19T04:54:16;94507.41;;;10.55;95.99
55424;BME280;41294;42.666;23.350;2023-04-19T04:56:41;94503.78;;;10.67;94.88
55424;BME280;41294;42.666;23.350;2023-04-19T04:59:07;94505.88;;;10.63;95.40
55424;BME280;41294;42.666;23.350;2023-04-19T05:01:32;94509.63;;;10.71;95.38
55424;BME280;41294;42.666;23.350;2023-04-19T05:03:58;94511.44;;;10.65;95.58
55424;BME280;41294;42.666;23.350;2023-04-19T05:06:23;94514.66;;;10.60;95.45
55424;BME280;41294;42.666;23.350;2023-04-19T05:08:49;94515.78;;;10.68;94.99
55424;BME280;41294;42.666;23.350;2023-04-19T05:11:14;94509.06;;;10.67;95.07
55424;BME280;41294;42.666;23.350;2023-04-19T05:13:40;94516.19;;;10.75;94.27
55424;BME280;41294;42.666;23.350;2023-04-19T05:16:06;94520.56;;;10.78;95.05
55424;BME280;41294;42.666;23.350;2023-04-19T05:18:31;94525.88;;;10.69;94.39
55424;BME280;41294;42.666;23.350;2023-04-19T05:20:56;94518.94;;;10.81;94.95
55424;BME280;41294;42.666;23.350;2023-04-19T05:23:22;94521.47;;;10.99;94.16
55424;BME280;41294;42.666;23.350;2023-04-19T05:25:47;94516.84;;;11.08;93.26
55424;BME280;41294;42.666;23.350;2023-04-19T05:28:13;94523.03;;;11.20;92.59
55424;BME280;41294;42.666;23.350;2023-04-19T05:30:38;94525.91;;;11.31;92.25
55424;BME280;41294;42.666;23.350;2023-04-19T05:33:04;94530.88;;;11.29;91.90
55424;BME280;41294;42.666;23.350;2023-04-19T05:35:29;94532.63;;;11.32;91.78
55424;BME280;41294;42.666;23.350;2023-04-19T05:37:55;94525.28;;;11.36;91.58
55424;BME280;41294;42.666;23.350;2023-04-19T05:40:22;94529.09;;;11.35;91.67
55424;BME280;41294;42.666;23.350;2023-04-19T05:42:51;94526.34;;;11.52;91.22
55424;BME280;41294;42.666;23.350;2023-04-19T05:45:17;94522.81;;;11.70;89.68
55424;BME280;41294;42.666;23.350;2023-04-19T05:47:45;94522.34;;;11.86;89.19
55424;BME280;41294;42.666;23.350;2023-04-19T05:50:10;94526.16;;;11.99;88.96
55424;BME280;41294;42.666;23.350;2023-04-19T05:52:36;94528.81;;;11.99;88.05
55424;BME280;41294;42.666;23.350;2023-04-19T05:55:02;94525.91;;;11.83;88.39
55424;BME280;41294;42.666;23.350;2023-04-19T05:57:27;94524.09;;;11.89;88.31
55424;BME280;41294;42.666;23.350;2023-04-19T05:59:52;94534.44;;;11.92;88.15
55424;BME280;41294;42.666;23.350;2023-04-19T06:02:18;94531.34;;;11.94;88.25
55424;BME280;41294;42.666;23.350;2023-04-19T06:04:43;94535.91;;;11.93;87.99
55424;BME280;41294;42.666;23.350;2023-04-19T06:07:09;94530.16;;;11.80;88.61
55424;BME280;41294;42.666;23.350;2023-04-19T06:09:34;94534.91;;;12.05;87.37
55424;BME280;41294;42.666;23.350;2023-04-19T06:11:59;94531.91;;;11.98;87.58
55424;BME280;41294;42.666;23.350;2023-04-19T06:14:26;94528.38;;;12.15;86.87
55424;BME280;41294;42.666;23.350;2023-04-19T06:16:54;94533.50;;;12.24;86.23
55424;BME280;41294;42.666;23.350;2023-04-19T06:19:20;94534.53;;;12.12;86.45
55424;BME280;41294;42.666;23.350;2023-04-19T06:21:45;94539.25;;;12.08;86.92
55424;BME280;41294;42.666;23.350;2023-04-19T06:24:12;94538.81;;;12.10;87.02
55424;BME280;41294;42.666;23.350;2023-04-19T06:26:37;94530.91;;;11.95;87.48
55424;BME280;41294;42.666;23.350;2023-04-19T06:29:04;94536.09;;;12.04;87.50
55424;BME280;41294;42.666;23.350;2023-04-19T06:31:31;94531.50;;;12.33;86.54
55424;BME280;41294;42.666;23.350;2023-04-19T06:33:56;94530.53;;;12.31;86.39
55424;BME280;41294;42.666;23.350;2023-04-19T06:36:22;94531.81;;;12.55;85.48
55424;BME280;41294;42.666;23.350;2023-04-19T06:38:47;94528.94;;;12.73;84.64
55424;BME280;41294;42.666;23.350;2023-04-19T06:41:14;94530.56;;;12.85;83.52
55424;BME280;41294;42.666;23.350;2023-04-19T06:43:39;94532.31;;;13.08;82.57
55424;BME280;41294;42.666;23.350;2023-04-19T06:46:07;94542.44;;;13.10;82.00
55424;BME280;41294;42.666;23.350;2023-04-19T06:48:33;94532.72;;;13.41;80.74
55424;BME280;41294;42.666;23.350;2023-04-19T06:50:59;94539.91;;;13.40;80.72
55424;BME280;41294;42.666;23.350;2023-04-19T06:53:25;94539.25;;;13.45;80.48
55424;BME280;41294;42.666;23.350;2023-04-19T06:55:59;94542.25;;;13.58;79.75
55424;BME280;41294;42.666;23.350;2023-04-19T06:58:26;94540.19;;;13.93;77.67
55424;BME280;41294;42.666;23.350;2023-04-19T07:00:53;94548.19;;;13.98;77.09
55424;BME280;41294;42.666;23.350;2023-04-19T07:03:18;94539.56;;;13.78;77.43
55424;BME280;41294;42.666;23.350;2023-04-19T07:05:44;94549.00;;;14.10;76.47
55424;BME280;41294;42.666;23.350;2023-04-19T07:08:09;94551.47;;;13.88;76.29
55424;BME280;41294;42.666;23.350;2023-04-19T07:10:35;94547.41;;;13.93;76.15
55424;BME280;41294;42.666;23.350;2023-04-19T07:13:00;94546.31;;;14.04;76.01
55424;BME280;41294;42.666;23.350;2023-04-19T07:15:26;94555.34;;;14.12;75.53
55424;BME280;41294;42.666;23.350;2023-04-19T07:17:51;94549.97;;;14.38;74.74
55424;BME280;41294;42.666;23.350;2023-04-19T07:20:17;94551.72;;;14.15;74.81
55424;BME280;41294;42.666;23.350;2023-04-19T07:22:42;94547.22;;;14.21;75.46
55424;BME280;41294;42.666;23.350;2023-04-19T07:25:08;94556.22;;;14.35;74.73
55424;BME280;41294;42.666;23.350;2023-04-19T07:27:33;94546.53;;;14.26;74.94
55424;BME280;41294;42.666;23.350;2023-04-19T07:29:59;94548.78;;;14.39;74.18
55424;BME280;41294;42.666;23.350;2023-04-19T07:32:24;94557.56;;;14.56;73.63
55424;BME280;41294;42.666;23.350;2023-04-19T07:34:50;94550.81;;;14.55;73.36
55424;BME280;41294;42.666;23.350;2023-04-19T07:37:16;94554.09;;;14.39;73.29
55424;BME280;41294;42.666;23.350;2023-04-19T07:39:41;94547.72;;;14.25;73.95
55424;BME280;41294;42.666;23.350;2023-04-19T07:42:07;94554.03;;;14.33;73.57
55424;BME280;41294;42.666;23.350;2023-04-19T07:44:32;94547.34;;;14.38;73.94
55424;BME280;41294;42.666;23.350;2023-04-19T07:46:57;94549.13;;;14.52;73.56
55424;BME280;41294;42.666;23.350;2023-04-19T07:49:23;94560.00;;;14.59;73.46
55424;BME280;41294;42.666;23.350;2023-04-19T07:51:48;94554.78;;;14.39;74.55
55424;BME280;41294;42.666;23.350;2023-04-19T07:54:14;94551.13;;;14.31;73.60
55424;BME280;41294;42.666;23.350;2023-04-19T07:56:40;94549.13;;;14.21;74.48
55424;BME280;41294;42.666;23.350;2023-04-19T07:59:06;94542.63;;;14.22;74.93
55424;BME280;41294;42.666;23.350;2023-04-19T08:01:31;94550.63;;;14.02;75.74
55424;BME280;41294;42.666;23.350;2023-04-19T08:03:57;94549.47;;;14.08;75.81
55424;BME280;41294;42.666;23.350;2023-04-19T08:06:22;94555.88;;;14.22;75.27
55424;BME280;41294;42.666;23.350;2023-04-19T08:08:48;94549.38;;;14.54;74.17
55424;BME280;41294;42.666;23.350;2023-04-19T08:11:13;94554.25;;;14.61;74.34
55424;BME280;41294;42.666;23.350;2023-04-19T08:13:38;94557.09;;;14.52;73.42
55424;BME280;41294;42.666;23.350;2023-04-19T08:16:04;94552.66;;;14.79;72.80
55424;BME280;41294;42.666;23.350;2023-04-19T08:18:30;94548.59;;;14.84;72.66
55424;BME280;41294;42.666;23.350;2023-04-19T08:20:56;94552.88;;;14.76;72.35
55424;BME280;41294;42.666;23.350;2023-04-19T08:23:22;94546.44;;;14.82;72.16
55424;BME280;41294;42.666;23.350;2023-04-19T08:25:47;94549.84;;;14.88;71.69
55424;BME280;41294;42.666;23.350;2023-04-19T08:28:13;94548.25;;;14.66;72.21
55424;BME280;41294;42.666;23.350;2023-04-19T08:30:39;94548.41;;;14.93;71.09
55424;BME280;41294;42.666;23.350;2023-04-19T08:33:05;94544.22;;;14.76;71.82
55424;BME280;41294;42.666;23.350;2023-04-19T08:35:30;94544.03;;;14.84;71.60
55424;BME280;41294;42.666;23.350;2023-04-19T08:37:56;94549.41;;;14.59;72.10
55424;BME280;41294;42.666;23.350;2023-04-19T08:40:21;94536.66;;;14.58;72.41
55424;BME280;41294;42.666;23.350;2023-04-19T08:42:47;94539.09;;;14.30;73.32
55424;BME280;41294;42.666;23.350;2023-04-19T08:45:15;94535.72;;;14.30;73.72
55424;BME280;41294;42.666;23.350;2023-04-19T08:47:42;94536.56;;;14.47;73.28
55424;BME280;41294;42.666;23.350;2023-04-19T08:50:08;94534.00;;;14.58;73.02
55424;BME280;41294;42.666;23.350;2023-04-19T08:52:35;94531.69;;;14.76;72.84
55424;BME280;41294;42.666;23.350;2023-04-19T08:55:03;94527.28;;;15.09;70.92
55424;BME280;41294;42.666;23.350;2023-04-19T08:57:30;94531.59;;;15.01;70.51
55424;BME280;41294;42.666;23.350;2023-04-19T08:59:56;94529.22;;;15.14;70.03
55424;BME280;41294;42.666;23.350;2023-04-19T09:02:22;94517.03;;;14.80;70.00
55424;BME280;41294;42.666;23.350;2023-04-19T09:04:48;94523.53;;;14.79;70.44
55424;BME280;41294;42.666;23.350;2023-04-19T09:07:26;94523.38;;;14.99;69.89
55424;BME280;41294;42.666;23.350;2023-04-19T09:10:06;94518.88;;;15.16;70.46
55424;BME280;41294;42.666;23.350;2023-04-19T09:12:33;94520.22;;;15.43;69.02
55424;BME280;41294;42.666;23.350;2023-04-19T09:15:00;94525.75;;;15.45;68.38
55424;BME280;41294;42.666;23.350;2023-04-19T09:17:29;94508.72;;;15.73;67.14
55424;BME280;41294;42.666;23.350;2023-04-19T09:19:56;94512.34;;;16.03;66.46
55424;BME280;41294;42.666;23.350;2023-04-19T09:22:21;94512.63;;;16.27;64.70
55424;BME280;41294;42.666;23.350;2023-04-19T09:24:52;94505.84;;;16.20;64.50
55424;BME280;41294;42.666;23.350;2023-04-19T09:27:30;94508.28;;;16.24;64.79
55424;BME280;41294;42.666;23.350;2023-04-19T09:29:59;94507.06;;;16.03;65.42
55424;BME280;41294;42.666;23.350;2023-04-19T09:32:25;94512.16;;;16.45;64.91
55424;BME280;41294;42.666;23.350;2023-04-19T09:34:55;94500.94;;;16.90;62.53
55424;BME280;41294;42.666;23.350;2023-04-19T09:37:22;94507.16;;;17.14;61.43
55424;BME280;41294;42.666;23.350;2023-04-19T09:39:47;94510.38;;;17.58;60.00
55424;BME280;41294;42.666;23.350;2023-04-19T09:42:13;94506.25;;;17.98;58.46
55424;BME280;41294;42.666;23.350;2023-04-19T09:44:38;94503.75;;;17.76;58.77
55424;BME280;41294;42.666;23.350;2023-04-19T09:47:23;94499.47;;;18.31;58.19
55424;BME280;41294;42.666;23.350;2023-04-19T09:50:11;94496.31;;;19.10;55.14
55424;BME280;41294;42.666;23.350;2023-04-19T09:52:37;94487.84;;;19.06;54.36
55424;BME280;41294;42.666;23.350;2023-04-19T09:55:04;94492.91;;;19.09;54.67
55424;BME280;41294;42.666;23.350;2023-04-19T09:57:31;94484.28;;;19.22;53.98
55424;BME280;41294;42.666;23.350;2023-04-19T09:59:59;94479.09;;;19.48;53.08
55424;BME280;41294;42.666;23.350;2023-04-19T10:02:26;94480.09;;;18.60;54.28
55424;BME280;41294;42.666;23.350;2023-04-19T10:04:56;94479.81;;;19.11;53.16
55424;BME280;41294;42.666;23.350;2023-04-19T10:07:22;94478.66;;;19.81;51.43
55424;BME280;41294;42.666;23.350;2023-04-19T10:09:49;94464.22;;;19.71;51.04
55424;BME280;41294;42.666;23.350;2023-04-19T10:12:15;94474.75;;;19.82;51.04
55424;BME280;41294;42.666;23.350;2023-04-19T10:14:41;94475.78;;;19.97;50.77
55424;BME280;41294;42.666;23.350;2023-04-19T10:17:07;94469.78;;;19.17;50.65
55424;BME280;41294;42.666;23.350;2023-04-19T10:19:34;94468.28;;;18.74;52.61
55424;BME280;41294;42.666;23.350;2023-04-19T10:22:00;94464.25;;;18.68;53.58
55424;BME280;41294;42.666;23.350;2023-04-19T10:24:29;94464.38;;;19.41;52.68
55424;BME280;41294;42.666;23.350;2023-04-19T10:27:15;94458.97;;;20.15;50.71
55424;BME280;41294;42.666;23.350;2023-04-19T10:29:57;94452.88;;;20.14;50.66
55424;BME280;41294;42.666;23.350;2023-04-19T10:32:28;94455.34;;;19.81;50.89
55424;BME280;41294;42.666;23.350;2023-04-19T10:34:53;94452.03;;;19.20;51.72
55424;BME280;41294;42.666;23.350;2023-04-19T10:37:24;94462.06;;;19.32;52.22
55424;BME280;41294;42.666;23.350;2023-04-19T10:39:50;94450.22;;;19.83;49.71
55424;BME280;41294;42.666;23.350;2023-04-19T10:42:15;94436.81;;;20.01;50.22
55424;BME280;41294;42.666;23.350;2023-04-19T10:44:41;94442.75;;;19.94;49.55
55424;BME280;41294;42.666;23.350;2023-04-19T10:47:06;94438.75;;;20.01;49.18
55424;BME280;41294;42.666;23.350;2023-04-19T10:49:44;94439.53;;;20.14;49.33
55424;BME280;41294;42.666;23.350;2023-04-19T10:52:26;94431.31;;;20.12;48.74
55424;BME280;41294;42.666;23.350;2023-04-19T10:54:56;94421.91;;;20.37;49.47
55424;BME280;41294;42.666;23.350;2023-04-19T10:57:22;94438.16;;;20.52;47.51
55424;BME280;41294;42.666;23.350;2023-04-19T11:00:18;94420.63;;;20.25;46.69
55424;BME280;41294;42.666;23.350;2023-04-19T11:02:46;94425.88;;;19.86;48.56
55424;BME280;41294;42.666;23.350;2023-04-19T11:05:12;94423.59;;;20.09;49.14
55424;BME280;41294;42.666;23.350;2023-04-19T11:07:39;94420.19;;;20.08;48.72
55424;BME280;41294;42.666;23.350;2023-04-19T11:10:06;94424.47;;;19.98;48.88
55424;BME280;41294;42.666;23.350;2023-04-19T11:12:32;94424.47;;;19.98;48.52
55424;BME280;41294;42.666;23.350;2023-04-19T11:14:59;94416.25;;;19.96;48.53
55424;BME280;41294;42.666;23.350;2023-04-19T11:17:27;94414.66;;;20.19;47.23
55424;BME280;41294;42.666;23.350;2023-04-19T11:19:57;94413.25;;;20.31;46.82
55424;BME280;41294;42.666;23.350;2023-04-19T11:22:34;94412.00;;;20.19;46.94
55424;BME280;41294;42.666;23.350;2023-04-19T11:27:32;94419.22;;;19.43;48.84
55424;BME280;41294;42.666;23.350;2023-04-19T11:30:03;94410.97;;;19.60;48.06
55424;BME280;41294;42.666;23.350;2023-04-19T11:32:29;94421.09;;;19.80;47.64
55424;BME280;41294;42.666;23.350;2023-04-19T11:34:55;94411.69;;;19.91;46.58
55424;BME280;41294;42.666;23.350;2023-04-19T11:37:21;94415.28;;;19.63;46.67
55424;BME280;41294;42.666;23.350;2023-04-19T11:39:47;94418.94;;;19.78;46.03
55424;BME280;41294;42.666;23.350;2023-04-19T11:42:18;94408.75;;;19.95;45.88
55424;BME280;41294;42.666;23.350;2023-04-19T11:44:48;94397.63;;;20.48;45.15
55424;BME280;41294;42.666;23.350;2023-04-19T11:47:13;94397.94;;;20.58;45.79
55424;BME280;41294;42.666;23.350;2023-04-19T11:49:39;94402.66;;;20.65;44.04
55424;BME280;41294;42.666;23.350;2023-04-19T11:52:05;94402.84;;;20.54;44.62
55424;BME280;41294;42.666;23.350;2023-04-19T11:54:30;94393.28;;;20.58;44.24
55424;BME280;41294;42.666;23.350;2023-04-19T11:57:07;94388.16;;;20.21;44.49
55424;BME280;41294;42.666;23.350;2023-04-19T11:59:34;94380.41;;;20.05;44.99
55424;BME280;41294;42.666;23.350;2023-04-19T12:02:04;94384.06;;;20.46;43.74
55424;BME280;41294;42.666;23.350;2023-04-19T12:04:30;94388.78;;;20.79;43.05
55424;BME280;41294;42.666;23.350;2023-04-19T12:06:57;94386.09;;;20.53;43.29
55424;BME280;41294;42.666;23.350;2023-04-19T12:09:23;94378.69;;;20.46;44.12
55424;BME280;41294;42.666;23.350;2023-04-19T12:11:49;94374.41;;;20.82;43.34
55424;BME280;41294;42.666;23.350;2023-04-19T12:14:17;94379.91;;;20.97;43.55
55424;BME280;41294;42.666;23.350;2023-04-19T12:16:44;94366.53;;;20.58;42.55
55424;BME280;41294;42.666;23.350;2023-04-19T12:21:39;94369.03;;;20.30;42.90
55424;BME280;41294;42.666;23.350;2023-04-19T12:24:05;94365.00;;;20.63;42.40
55424;BME280;41294;42.666;23.350;2023-04-19T12:26:32;94371.09;;;20.37;43.41
55424;BME280;41294;42.666;23.350;2023-04-19T12:28:58;94373.75;;;20.11;44.46
55424;BME280;41294;42.666;23.350;2023-04-19T12:31:26;94373.31;;;20.07;46.53
55424;BME280;41294;42.666;23.350;2023-04-19T12:33:52;94367.88;;;20.13;47.50
55424;BME280;41294;42.666;23.350;2023-04-19T12:36:17;94363.91;;;19.57;47.95
55424;BME280;41294;42.666;23.350;2023-04-19T12:38:43;94365.69;;;19.98;47.64
55424;BME280;41294;42.666;23.350;2023-04-19T12:41:08;94358.31;;;20.17;45.81
55424;BME280;41294;42.666;23.350;2023-04-19T12:43:33;94365.50;;;20.09;46.26
55424;BME280;41294;42.666;23.350;2023-04-19T12:45:59;94364.59;;;19.88;46.46
55424;BME280;41294;42.666;23.350;2023-04-19T12:48:25;94366.44;;;19.49;47.77
55424;BME280;41294;42.666;23.350;2023-04-19T12:50:51;94364.50;;;19.50;48.47